Time;durP1;ratioP1;P1;durP2;ratioP2;P2;SDS_P1;SDS_P2;PMS_P1;PMS_P2;Temp;Humidity;BMP_temperature;BMP_pressure;BME280_temperature;BME280_humidity;BME280_pressure;Samples;Min_cycle;Max_cycle;Signal;HPM_P1;HPM_P2
2024/04/10 00:00:02;;;;;;;;;;;;;;;20.58;30.33;98032.78;5311346;27;1005;-76
2024/04/10 00:02:29;;;;;;;;;;;;;;;20.74;30.26;98027.16;5319625;26;1924;-76
2024/04/10 00:04:56;;;;;;;;;;;;;;;20.59;30.76;98017.41;5311274;27;1679;-76
2024/04/10 00:07:21;;;;;;;;;;;;;;;20.14;30.98;98023.56;5283087;27;1826;-76
2024/04/10 00:09:47;;;;;;;;;;;;;;;20.53;30.24;98022.00;5282548;27;1479;-77
2024/04/10 00:12:12;;;;;;;;;;;;;;;20.73;29.87;98014.25;5310984;27;1664;-76
2024/04/10 00:14:38;;;;;;;;;;;;;;;20.84;29.42;98010.41;5284859;26;2265;-77
2024/04/10 00:17:04;;;;;;;;;;;;;;;20.15;30.61;97979.97;5316624;26;1355;-76
2024/04/10 00:19:29;;;;;;;;;;;;;;;20.26;30.84;98014.47;5310832;26;1212;-76
2024/04/10 00:21:55;;;;;;;;;;;;;;;20.55;30.38;98013.84;5260453;27;1122;-76
2024/04/10 00:24:21;;;;;;;;;;;;;;;20.28;30.59;98017.63;5339460;26;959;-76
2024/04/10 00:26:49;;;;;;;;;;;;;;;20.18;31.07;98017.84;5320195;26;1819;-77
2024/04/10 00:29:15;;;;;;;;;;;;;;;20.53;30.39;98016.34;5318363;26;1888;-76
2024/04/10 00:31:41;;;;;;;;;;;;;;;20.47;30.85;98012.44;5291226;26;1097;-76
2024/04/10 00:34:07;;;;;;;;;;;;;;;20.79;29.92;98006.84;5370881;26;1394;-76
2024/04/10 00:36:32;;;;;;;;;;;;;;;20.90;29.71;98000.16;5395550;26;957;-76
2024/04/10 00:38:58;;;;;;;;;;;;;;;20.69;30.16;98007.91;5395181;26;1283;-76
2024/04/10 00:41:23;;;;;;;;;;;;;;;20.60;30.20;97999.22;5424672;26;1254;-76
2024/04/10 00:43:49;;;;;;;;;;;;;;;20.89;29.68;98004.22;5395162;26;996;-76
2024/04/10 00:46:15;;;;;;;;;;;;;;;20.49;30.24;98004.31;5352701;26;2445;-76
2024/04/10 00:48:41;;;;;;;;;;;;;;;20.61;30.08;98003.63;5354020;26;1830;-76
2024/04/10 00:51:07;;;;;;;;;;;;;;;20.37;30.11;98002.13;5383307;26;1156;-76
2024/04/10 00:53:32;;;;;;;;;;;;;;;20.14;30.68;98000.97;5383235;26;1034;-76
2024/04/10 00:55:59;;;;;;;;;;;;;;;20.49;30.33;97998.66;5389440;26;1063;-77
2024/04/10 00:58:24;;;;;;;;;;;;;;;20.54;30.45;97998.94;5424785;26;1102;-76
2024/04/10 01:00:50;;;;;;;;;;;;;;;20.57;30.14;97997.25;5424221;26;1951;-76
2024/04/10 01:03:15;;;;;;;;;;;;;;;20.79;30.04;98000.41;5424845;26;1195;-76
2024/04/10 01:05:41;;;;;;;;;;;;;;;20.38;30.54;97998.88;5454885;26;936;-76
2024/04/10 01:08:07;;;;;;;;;;;;;;;20.71;29.90;98005.41;5424382;26;1826;-76
2024/04/10 01:10:32;;;;;;;;;;;;;;;20.23;30.58;98012.50;5454753;26;989;-76
2024/04/10 01:12:58;;;;;;;;;;;;;;;20.54;30.07;98006.63;5388814;26;1590;-76
2024/04/10 01:15:23;;;;;;;;;;;;;;;20.22;30.53;98013.72;5417666;26;1834;-76
2024/04/10 01:17:48;;;;;;;;;;;;;;;19.75;31.40;97996.91;5330518;26;975;-76
2024/04/10 01:20:14;;;;;;;;;;;;;;;20.28;30.52;98000.69;5418370;26;1049;-76
2024/04/10 01:22:39;;;;;;;;;;;;;;;20.45;30.34;98003.56;5387108;26;977;-76
2024/04/10 01:25:05;;;;;;;;;;;;;;;20.47;30.47;98001.13;5382863;26;1144;-76
2024/04/10 01:27:32;;;;;;;;;;;;;;;20.81;29.69;98000.75;5388476;26;1840;-76
2024/04/10 01:29:57;;;;;;;;;;;;;;;20.69;29.70;98009.94;5385782;26;1742;-76
2024/04/10 01:32:23;;;;;;;;;;;;;;;20.52;30.44;98007.06;5318192;26;941;-77
2024/04/10 01:34:48;;;;;;;;;;;;;;;20.63;29.84;97998.34;5348039;26;971;-76
2024/04/10 01:37:13;;;;;;;;;;;;;;;20.51;30.18;98007.47;5318649;26;1295;-76
2024/04/10 01:39:39;;;;;;;;;;;;;;;20.61;29.85;98000.78;5347987;26;975;-76
2024/04/10 01:42:05;;;;;;;;;;;;;;;20.28;30.47;97989.38;5318577;26;1122;-76
2024/04/10 01:44:30;;;;;;;;;;;;;;;20.46;30.09;97983.34;5344412;26;2017;-76
2024/04/10 01:46:56;;;;;;;;;;;;;;;20.45;30.17;97992.25;5314326;26;1965;-75
2024/04/10 01:49:21;;;;;;;;;;;;;;;20.25;30.61;97989.44;5317051;26;946;-76
2024/04/10 01:51:47;;;;;;;;;;;;;;;20.61;29.93;97989.47;5313217;27;975;-75
2024/04/10 01:54:13;;;;;;;;;;;;;;;20.69;29.81;97993.75;5341950;26;1101;-77
2024/04/10 01:56:39;;;;;;;;;;;;;;;20.81;29.70;97998.72;5342041;26;1012;-76
2024/04/10 01:59:04;;;;;;;;;;;;;;;20.78;29.66;98002.44;5372727;26;1039;-76
2024/04/10 02:01:30;;;;;;;;;;;;;;;20.34;30.11;98000.16;5353716;26;1042;-76
2024/04/10 02:03:56;;;;;;;;;;;;;;;20.63;29.65;97997.56;5454295;26;2205;-77
2024/04/10 02:06:23;;;;;;;;;;;;;;;20.41;30.04;97986.66;5425408;26;965;-76
2024/04/10 02:08:48;;;;;;;;;;;;;;;20.52;29.91;97992.09;5388251;26;1833;-76
2024/04/10 02:11:25;;;;;;;;;;;;;;;20.07;31.03;97991.88;5359160;26;919;-76
2024/04/10 02:13:50;;;;;;;;;;;;;;;20.22;30.62;98002.44;5417871;26;942;-76
2024/04/10 02:16:16;;;;;;;;;;;;;;;20.36;30.54;98001.31;5388337;26;1100;-76
2024/04/10 02:18:41;;;;;;;;;;;;;;;20.40;30.43;98006.91;5386171;26;2278;-76
2024/04/10 02:21:07;;;;;;;;;;;;;;;20.64;30.12;98004.78;5388512;26;974;-76
2024/04/10 02:23:33;;;;;;;;;;;;;;;20.94;29.78;98023.50;5358878;26;1176;-76
2024/04/10 02:26:07;;;;;;;;;;;;;;;20.63;30.11;98009.66;5388161;26;952;-76
2024/04/10 02:28:32;;;;;;;;;;;;;;;20.73;29.83;98024.78;5388085;26;2000;-76
2024/04/10 02:30:58;;;;;;;;;;;;;;;20.67;29.97;98021.66;5358803;26;990;-76
2024/04/10 02:33:23;;;;;;;;;;;;;;;20.44;30.32;98021.75;5356204;26;2207;-76
2024/04/10 02:35:49;;;;;;;;;;;;;;;20.24;30.53;98022.56;5358430;26;1068;-76
2024/04/10 02:38:14;;;;;;;;;;;;;;;20.57;30.21;98022.69;5417825;26;1257;-76
2024/04/10 02:40:40;;;;;;;;;;;;;;;20.70;30.01;98022.81;5417700;26;939;-76
2024/04/10 02:43:05;;;;;;;;;;;;;;;20.09;31.16;98026.91;5422835;26;2287;-76
2024/04/10 02:45:31;;;;;;;;;;;;;;;20.43;30.56;98039.94;5422984;26;973;-76
2024/04/10 02:47:57;;;;;;;;;;;;;;;20.42;30.92;98038.34;5423144;26;1829;-76
2024/04/10 02:50:22;;;;;;;;;;;;;;;20.53;30.48;98038.94;5423361;26;958;-76
2024/04/10 02:52:48;;;;;;;;;;;;;;;20.70;30.24;98032.09;5393477;26;1205;-76
2024/04/10 02:55:13;;;;;;;;;;;;;;;20.70;30.28;98043.41;5451511;26;1766;-76
2024/04/10 02:57:39;;;;;;;;;;;;;;;20.92;30.06;98042.91;5423354;26;956;-76
2024/04/10 03:00:05;;;;;;;;;;;;;;;20.90;29.89;98048.22;5423174;26;985;-76
2024/04/10 03:02:32;;;;;;;;;;;;;;;20.61;30.36;98037.53;5393824;26;930;-76
2024/04/10 03:04:59;;;;;;;;;;;;;;;20.61;30.00;98043.19;5423282;26;981;-76
2024/04/10 03:07:24;;;;;;;;;;;;;;;20.47;30.21;98040.69;5423314;26;1825;-75
2024/04/10 03:09:50;;;;;;;;;;;;;;;20.37;30.58;98041.69;5422840;26;1646;-76
2024/04/10 03:12:15;;;;;;;;;;;;;;;20.44;30.52;98038.72;5454559;26;2321;-76
2024/04/10 03:14:42;;;;;;;;;;;;;;;20.16;31.07;98035.25;5387040;26;1207;-76
2024/04/10 03:17:11;;;;;;;;;;;;;;;20.10;31.08;98051.09;5358725;26;938;-76
2024/04/10 03:19:37;;;;;;;;;;;;;;;20.54;30.56;98047.00;5358699;26;1066;-76
2024/04/10 03:22:03;;;;;;;;;;;;;;;20.60;30.45;98050.09;5387565;26;1015;-76
2024/04/10 03:24:28;;;;;;;;;;;;;;;20.57;30.41;98048.13;5387101;26;969;-76
2024/04/10 03:26:54;;;;;;;;;;;;;;;20.65;30.26;98041.09;5406618;26;2281;-76
2024/04/10 03:29:20;;;;;;;;;;;;;;;20.89;29.79;98052.31;5346308;26;945;-76
2024/04/10 03:31:45;;;;;;;;;;;;;;;20.97;29.57;98056.53;5317658;26;997;-76
2024/04/10 03:34:11;;;;;;;;;;;;;;;20.27;30.58;98064.09;5277589;27;938;-76
2024/04/10 03:36:38;;;;;;;;;;;;;;;20.40;30.20;98057.75;5221843;27;951;-76
2024/04/10 03:39:04;;;;;;;;;;;;;;;20.62;29.77;98058.91;5222344;27;1014;-76
2024/04/10 03:41:33;;;;;;;;;;;;;;;20.47;30.14;98057.66;5291719;27;1961;-77
2024/04/10 03:44:04;;;;;;;;;;;;;;;20.63;29.75;98071.06;5283867;27;961;-76
2024/04/10 03:46:30;;;;;;;;;;;;;;;20.49;30.32;98060.84;5340329;26;1017;-77
2024/04/10 03:48:58;;;;;;;;;;;;;;;20.18;30.87;98069.50;5352327;26;1838;-76
2024/04/10 03:51:24;;;;;;;;;;;;;;;20.59;30.11;98071.13;5351419;26;1090;-76
2024/04/10 03:53:49;;;;;;;;;;;;;;;20.57;30.26;98076.41;5317102;26;1196;-76
2024/04/10 03:56:15;;;;;;;;;;;;;;;20.64;30.12;98079.09;5329253;26;2178;-77
2024/04/10 03:58:40;;;;;;;;;;;;;;;20.83;29.77;98068.16;5316628;26;1702;-76
2024/04/10 04:01:06;;;;;;;;;;;;;;;20.74;29.81;98060.31;5316306;26;2004;-76
2024/04/10 04:03:33;;;;;;;;;;;;;;;20.72;29.86;98080.50;5341351;26;2482;-76
2024/04/10 04:06:01;;;;;;;;;;;;;;;20.66;29.89;98079.44;5387610;26;1016;-76
2024/04/10 04:08:27;;;;;;;;;;;;;;;20.69;29.84;98084.22;5457984;26;1861;-76
2024/04/10 04:10:55;;;;;;;;;;;;;;;20.70;29.67;98083.00;5427858;26;1227;-76
2024/04/10 04:13:21;;;;;;;;;;;;;;;20.33;30.66;98080.53;5427674;26;1547;-76
2024/04/10 04:15:48;;;;;;;;;;;;;;;20.59;30.12;98087.28;5458021;26;1018;-76
2024/04/10 04:18:13;;;;;;;;;;;;;;;20.80;29.89;98093.28;5428228;26;987;-76
2024/04/10 04:20:39;;;;;;;;;;;;;;;20.74;30.26;98092.19;5488183;26;947;-76
2024/04/10 04:23:04;;;;;;;;;;;;;;;20.42;30.36;98092.06;5415897;26;892;-76
2024/04/10 04:25:30;;;;;;;;;;;;;;;20.36;30.30;98093.78;5415976;26;1004;-76
2024/04/10 04:27:56;;;;;;;;;;;;;;;20.41;30.26;98094.06;5415592;26;1829;-78
2024/04/10 04:30:22;;;;;;;;;;;;;;;20.40;30.15;98094.50;5414951;26;1121;-77
2024/04/10 04:32:48;;;;;;;;;;;;;;;20.52;30.30;98102.34;5415418;26;846;-77
2024/04/10 04:35:14;;;;;;;;;;;;;;;20.53;30.30;98103.97;5415209;26;1102;-76
2024/04/10 04:37:40;;;;;;;;;;;;;;;20.40;30.72;98097.31;5344820;26;1544;-77
2024/04/10 04:40:10;;;;;;;;;;;;;;;20.73;30.19;98104.75;5344713;26;918;-77
2024/04/10 04:42:36;;;;;;;;;;;;;;;20.88;30.04;98098.75;5344366;26;1210;-77
2024/04/10 04:45:03;;;;;;;;;;;;;;;20.91;29.97;98100.72;5344598;26;1181;-77
2024/04/10 04:47:28;;;;;;;;;;;;;;;20.90;30.07;98108.41;5344534;26;1850;-77
2024/04/10 04:49:55;;;;;;;;;;;;;;;20.64;30.41;98112.22;5344608;26;1306;-77
2024/04/10 04:52:20;;;;;;;;;;;;;;;20.47;30.41;98114.19;5344423;26;722;-77
2024/04/10 04:54:46;;;;;;;;;;;;;;;20.14;30.95;98118.81;5398601;26;1265;-77
2024/04/10 04:57:12;;;;;;;;;;;;;;;19.87;31.76;98110.44;5414884;26;902;-77
2024/04/10 04:59:38;;;;;;;;;;;;;;;20.30;30.89;98114.06;5315837;26;963;-77
2024/04/10 05:02:04;;;;;;;;;;;;;;;20.07;31.37;98116.94;5316060;26;942;-79
2024/04/10 05:07:13;;;;;;;;;;;;;;;20.72;30.43;98120.09;5249829;27;1823;-76
2024/04/10 05:09:40;;;;;;;;;;;;;;;20.59;30.83;98115.56;5251401;27;1206;-77
2024/04/10 05:12:05;;;;;;;;;;;;;;;20.81;30.79;98113.88;5251644;27;1075;-77
2024/04/10 05:14:31;;;;;;;;;;;;;;;20.64;30.67;98118.66;5296356;26;945;-77
2024/04/10 05:16:56;;;;;;;;;;;;;;;20.65;30.73;98120.25;5284948;27;1001;-77
2024/04/10 05:19:22;;;;;;;;;;;;;;;20.64;30.50;98118.66;5285229;27;1095;-77
2024/04/10 05:21:47;;;;;;;;;;;;;;;20.46;30.73;98116.19;5285123;27;952;-76
2024/04/10 05:24:13;;;;;;;;;;;;;;;20.51;30.42;98121.34;5313229;27;944;-77
2024/04/10 05:26:38;;;;;;;;;;;;;;;20.54;30.45;98126.13;5284881;27;983;-76
2024/04/10 05:29:04;;;;;;;;;;;;;;;20.56;30.48;98134.16;5313047;27;1850;-76
2024/04/10 05:31:29;;;;;;;;;;;;;;;20.72;30.50;98130.63;5256841;27;974;-76
2024/04/10 05:33:55;;;;;;;;;;;;;;;20.43;31.33;98136.03;5313771;27;878;-76
2024/04/10 05:36:20;;;;;;;;;;;;;;;20.66;30.66;98130.31;5361097;26;976;-76
2024/04/10 05:38:46;;;;;;;;;;;;;;;20.84;30.35;98126.34;5453673;26;893;-76
2024/04/10 05:41:12;;;;;;;;;;;;;;;20.79;30.46;98128.44;5394436;26;900;-76
2024/04/10 05:43:37;;;;;;;;;;;;;;;20.43;30.97;98113.44;5423777;26;1026;-76
2024/04/10 05:46:03;;;;;;;;;;;;;;;20.62;30.38;98123.16;5423605;26;1009;-76
2024/04/10 05:48:28;;;;;;;;;;;;;;;20.61;30.52;98124.38;5414307;26;1829;-76
2024/04/10 05:50:58;;;;;;;;;;;;;;;20.38;30.75;98128.06;5455176;26;1143;-77
2024/04/10 05:53:24;;;;;;;;;;;;;;;20.44;30.93;98131.97;5425733;26;893;-76
2024/04/10 05:55:49;;;;;;;;;;;;;;;20.32;30.94;98129.81;5457053;26;941;-76
2024/04/10 05:58:15;;;;;;;;;;;;;;;20.35;30.98;98131.75;5425680;26;1071;-76
2024/04/10 06:00:41;;;;;;;;;;;;;;;20.57;30.65;98134.97;5455425;26;961;-76
2024/04/10 06:03:06;;;;;;;;;;;;;;;20.28;31.28;98133.47;5455107;26;932;-76
2024/04/10 06:05:32;;;;;;;;;;;;;;;20.48;30.77;98127.88;5457242;26;942;-76
2024/04/10 06:07:57;;;;;;;;;;;;;;;20.46;31.17;98132.31;5457028;26;1833;-76
2024/04/10 06:10:23;;;;;;;;;;;;;;;20.65;30.85;98125.91;5457023;26;966;-76
2024/04/10 06:12:49;;;;;;;;;;;;;;;20.89;30.48;98139.97;5456869;26;913;-76
2024/04/10 06:15:15;;;;;;;;;;;;;;;21.05;30.24;98146.47;5455178;26;895;-76
2024/04/10 06:17:41;;;;;;;;;;;;;;;20.96;30.44;98134.16;5454705;26;1040;-76
2024/04/10 06:20:09;;;;;;;;;;;;;;;20.88;30.37;98138.34;5456175;26;892;-76
2024/04/10 06:22:35;;;;;;;;;;;;;;;20.71;30.47;98126.19;5456966;26;849;-75
2024/04/10 06:25:00;;;;;;;;;;;;;;;20.40;30.91;98125.59;5456306;26;765;-76
2024/04/10 06:27:26;;;;;;;;;;;;;;;20.44;30.88;98123.50;5456959;26;1826;-76
2024/04/10 06:29:51;;;;;;;;;;;;;;;20.17;31.52;98135.72;5493186;26;934;-76
2024/04/10 06:32:17;;;;;;;;;;;;;;;19.96;31.82;98131.25;5491632;26;963;-76
2024/04/10 06:34:42;;;;;;;;;;;;;;;20.45;31.01;98134.34;5493219;26;1002;-76
2024/04/10 06:37:08;;;;;;;;;;;;;;;20.40;31.40;98142.53;5491636;26;1234;-76
2024/04/10 06:39:34;;;;;;;;;;;;;;;20.62;31.25;98129.59;5493059;26;1323;-76
2024/04/10 06:41:59;;;;;;;;;;;;;;;20.72;31.18;98134.22;5492906;26;953;-76
2024/04/10 06:44:25;;;;;;;;;;;;;;;20.79;30.90;98131.28;5491012;26;1306;-76
2024/04/10 06:46:50;;;;;;;;;;;;;;;20.73;30.92;98130.19;5491126;26;1829;-76
2024/04/10 06:49:16;;;;;;;;;;;;;;;20.91;30.54;98137.50;5460810;26;932;-76
2024/04/10 06:51:41;;;;;;;;;;;;;;;20.74;30.81;98139.47;5492757;26;903;-76
2024/04/10 06:54:07;;;;;;;;;;;;;;;20.43;31.19;98141.69;5460963;26;1163;-76
2024/04/10 06:56:32;;;;;;;;;;;;;;;20.37;31.48;98129.31;5491136;26;939;-77
2024/04/10 06:58:58;;;;;;;;;;;;;;;20.90;30.43;98135.91;5492812;26;890;-76
2024/04/10 07:01:23;;;;;;;;;;;;;;;20.15;31.83;98132.50;5492842;26;969;-76
2024/04/10 07:03:49;;;;;;;;;;;;;;;20.45;31.18;98127.91;5492263;26;944;-76
2024/04/10 07:06:15;;;;;;;;;;;;;;;20.46;31.34;98135.16;5490614;26;955;-75
2024/04/10 07:08:45;;;;;;;;;;;;;;;20.57;31.57;98130.09;5489872;26;1822;-76
2024/04/10 07:11:11;;;;;;;;;;;;;;;20.88;30.97;98144.00;5480727;26;1292;-76
2024/04/10 07:13:41;;;;;;;;;;;;;;;20.96;30.87;98134.94;5489445;26;1404;-76
2024/04/10 07:16:07;;;;;;;;;;;;;;;20.68;31.34;98130.72;5489913;26;1458;-76
2024/04/10 07:18:33;;;;;;;;;;;;;;;20.69;31.25;98126.66;5490111;26;1237;-76
2024/04/10 07:20:59;;;;;;;;;;;;;;;20.93;30.76;98124.50;5489990;26;1334;-77
2024/04/10 07:23:25;;;;;;;;;;;;;;;20.67;31.04;98129.09;5485464;26;1307;-76
2024/04/10 07:25:50;;;;;;;;;;;;;;;20.54;31.26;98114.03;5490137;26;1383;-76
2024/04/10 07:28:16;;;;;;;;;;;;;;;20.58;31.03;98114.75;5453816;26;1825;-77
2024/04/10 07:30:47;;;;;;;;;;;;;;;20.29;31.54;98109.63;5480950;26;1247;-76
2024/04/10 07:33:12;;;;;;;;;;;;;;;20.60;31.29;98119.97;5490597;26;947;-75
2024/04/10 07:35:38;;;;;;;;;;;;;;;20.43;31.28;98119.09;5459287;26;984;-77
2024/04/10 07:38:03;;;;;;;;;;;;;;;20.27;31.75;98123.41;5492193;26;942;-76
2024/04/10 07:40:29;;;;;;;;;;;;;;;20.21;32.11;98119.50;5460007;26;1022;-76
2024/04/10 07:42:55;;;;;;;;;;;;;;;20.68;31.50;98112.94;5460577;26;934;-76
2024/04/10 07:45:20;;;;;;;;;;;;;;;20.78;31.64;98114.75;5428987;26;936;-76
2024/04/10 07:47:46;;;;;;;;;;;;;;;20.94;31.16;98108.34;5458320;26;1837;-77
2024/04/10 07:50:11;;;;;;;;;;;;;;;20.48;31.76;98096.00;5490212;26;841;-77
2024/04/10 07:56:58;;;;;;;;;;;;;;;20.55;31.36;98113.59;5532462;25;1368223;-76
2024/04/10 07:59:24;;;;;;;;;;;;;;;20.56;31.13;98111.56;5552312;25;1195;-76
2024/04/10 08:01:50;;;;;;;;;;;;;;;20.55;31.12;98109.97;5585928;25;834;-76
2024/04/10 08:04:16;;;;;;;;;;;;;;;20.41;31.75;98118.69;5521589;25;1136;-77
2024/04/10 08:06:42;;;;;;;;;;;;;;;20.35;31.62;98117.63;5552357;25;927;-77
2024/04/10 08:09:07;;;;;;;;;;;;;;;20.70;31.63;98121.78;5521286;25;893;-77
2024/04/10 08:11:33;;;;;;;;;;;;;;;20.98;31.17;98120.34;5552450;25;959;-77
2024/04/10 08:13:59;;;;;;;;;;;;;;;20.96;31.38;98117.97;5446576;26;1195;-77
2024/04/10 08:16:25;;;;;;;;;;;;;;;20.87;31.45;98109.28;5476969;26;1837;-78
2024/04/10 08:18:50;;;;;;;;;;;;;;;20.70;31.41;98114.09;5476949;26;1166;-77
2024/04/10 08:21:16;;;;;;;;;;;;;;;20.68;31.43;98112.94;5476469;26;1275;-77
2024/04/10 08:23:45;;;;;;;;;;;;;;;20.65;31.60;98114.59;5446279;26;1203;-77
2024/04/10 08:26:13;;;;;;;;;;;;;;;20.56;31.80;98125.69;5507448;26;926;-76
2024/04/10 08:28:45;;;;;;;;;;;;;;;20.54;31.79;98119.69;5446321;26;1201;-76
2024/04/10 08:31:11;;;;;;;;;;;;;;;20.65;31.32;98117.44;5447537;26;1045;-76
2024/04/10 08:33:36;;;;;;;;;;;;;;;20.65;31.44;98114.59;5446715;26;941;-76
2024/04/10 08:36:02;;;;;;;;;;;;;;;20.92;31.00;98110.81;5507146;26;1818;-75
2024/04/10 08:38:28;;;;;;;;;;;;;;;20.52;31.60;98099.53;5476603;26;844;-75
2024/04/10 08:40:54;;;;;;;;;;;;;;;20.72;31.29;98100.31;5446533;26;1324;-76
2024/04/10 08:43:20;;;;;;;;;;;;;;;20.47;31.55;98098.03;5446455;26;969;-75
2024/04/10 08:45:47;;;;;;;;;;;;;;;20.42;31.64;98106.19;5506870;25;1120;-77
2024/04/10 08:48:12;;;;;;;;;;;;;;;20.36;31.79;98110.72;5551473;25;796;-76
2024/04/10 08:50:38;;;;;;;;;;;;;;;20.42;31.62;98106.19;5552042;25;904;-76
2024/04/10 08:53:03;;;;;;;;;;;;;;;20.50;31.96;98107.66;5551724;25;946;-76
2024/04/10 08:55:29;;;;;;;;;;;;;;;20.60;32.05;98109.47;5475981;26;1836;-77
2024/04/10 08:57:54;;;;;;;;;;;;;;;20.79;31.78;98114.31;5446451;26;967;-76
2024/04/10 09:00:20;;;;;;;;;;;;;;;20.90;31.43;98118.94;5476651;26;976;-77
2024/04/10 09:02:45;;;;;;;;;;;;;;;20.78;31.91;98112.72;5476277;26;1524;-76
2024/04/10 09:05:11;;;;;;;;;;;;;;;20.73;31.63;98113.22;5476474;26;915;-76
2024/04/10 09:07:36;;;;;;;;;;;;;;;20.46;32.02;98112.53;5464400;26;953;-77
2024/04/10 09:10:08;;;;;;;;;;;;;;;20.71;31.64;98109.22;5430249;26;1450;-76
2024/04/10 09:12:34;;;;;;;;;;;;;;;20.67;31.75;98106.47;5490903;26;950;-76
2024/04/10 09:15:09;;;;;;;;;;;;;;;20.37;32.03;98115.16;5460434;26;1855;-77
2024/04/10 09:17:34;;;;;;;;;;;;;;;20.41;31.85;98127.19;5432137;26;878;-76
2024/04/10 09:20:09;;;;;;;;;;;;;;;20.45;32.02;98133.56;5490885;26;1017;-76
2024/04/10 09:22:35;;;;;;;;;;;;;;;20.48;31.82;98132.75;5460896;26;948;-76
2024/04/10 09:25:08;;;;;;;;;;;;;;;20.64;31.51;98129.97;5490571;26;931;-76
2024/04/10 09:27:33;;;;;;;;;;;;;;;20.07;32.53;98139.53;5530641;25;908;-77
2024/04/10 09:29:59;;;;;;;;;;;;;;;20.04;32.72;98137.56;5472683;25;990;-76
2024/04/10 09:32:25;;;;;;;;;;;;;;;20.35;32.21;98145.88;5568391;25;940;-76
2024/04/10 09:34:50;;;;;;;;;;;;;;;20.25;32.30;98131.50;5568040;25;1821;-77
2024/04/10 09:37:16;;;;;;;;;;;;;;;20.61;31.42;98135.69;5568278;25;952;-77
2024/04/10 09:39:42;;;;;;;;;;;;;;;20.43;31.66;98141.69;5504761;25;893;-77
2024/04/10 09:42:16;;;;;;;;;;;;;;;20.79;31.22;98136.13;5534977;25;1187;-76
2024/04/10 09:44:42;;;;;;;;;;;;;;;20.48;31.97;98138.38;5454490;26;889;-76
2024/04/10 09:47:07;;;;;;;;;;;;;;;20.74;31.83;98140.28;5454330;26;1156;-77
2024/04/10 09:49:42;;;;;;;;;;;;;;;20.85;31.79;98139.25;5454093;26;994;-76
2024/04/10 09:52:08;;;;;;;;;;;;;;;21.00;31.56;98130.00;5417917;26;935;-77
2024/04/10 09:54:34;;;;;;;;;;;;;;;20.96;31.93;98139.81;5358871;26;1833;-77
2024/04/10 09:56:59;;;;;;;;;;;;;;;20.88;31.79;98135.53;5359640;26;1037;-76
2024/04/10 09:59:25;;;;;;;;;;;;;;;21.12;31.38;98134.19;5330412;26;1581;-76
2024/04/10 10:01:54;;;;;;;;;;;;;;;20.41;32.63;98127.97;5388551;26;965;-76
2024/04/10 10:04:20;;;;;;;;;;;;;;;20.52;32.33;98127.78;5417819;26;1021;-77
2024/04/10 10:06:46;;;;;;;;;;;;;;;20.62;31.82;98126.78;5359210;26;1255;-76
2024/04/10 10:09:12;;;;;;;;;;;;;;;20.61;32.03;98130.84;5358920;26;1219;-76
2024/04/10 10:11:37;;;;;;;;;;;;;;;20.59;31.91;98127.66;5383706;26;927;-77
2024/04/10 10:14:03;;;;;;;;;;;;;;;20.45;32.08;98128.69;5388407;26;963;-77
2024/04/10 10:16:31;;;;;;;;;;;;;;;20.56;32.10;98122.88;5388149;26;1818;-77
2024/04/10 10:18:57;;;;;;;;;;;;;;;20.90;31.36;98135.91;5423991;26;1107;-77
2024/04/10 10:21:23;;;;;;;;;;;;;;;20.89;31.54;98132.28;5394046;26;1240;-76
2024/04/10 10:24:05;;;;;;;;;;;;;;;20.34;32.32;98132.97;5449357;26;1808;-77
2024/04/10 10:26:31;;;;;;;;;;;;;;;20.46;32.35;98129.50;5467760;26;1254;-77
2024/04/10 10:29:00;;;;;;;;;;;;;;;20.48;32.24;98132.75;5437044;26;1199;-76
2024/04/10 10:31:26;;;;;;;;;;;;;;;20.62;31.84;98132.44;5466933;26;1224;-77
2024/04/10 10:33:57;;;;;;;;;;;;;;;20.63;32.02;98139.69;5466953;26;1243;-76
2024/04/10 10:36:23;;;;;;;;;;;;;;;20.30;32.46;98145.13;5497140;26;1814;-77
2024/04/10 10:38:49;;;;;;;;;;;;;;;20.81;31.74;98139.31;5422720;26;1100;-77
2024/04/10 10:41:15;;;;;;;;;;;;;;;19.87;33.32;98138.69;5418166;26;1180;-76
2024/04/10 10:43:41;;;;;;;;;;;;;;;20.13;33.01;98134.97;5423228;26;1081;-77
2024/04/10 10:46:08;;;;;;;;;;;;;;;20.92;32.21;98137.06;5423411;26;1245;-76
2024/04/10 10:48:33;;;;;;;;;;;;;;;21.01;32.18;98127.97;5453069;26;922;-77
2024/04/10 10:50:59;;;;;;;;;;;;;;;20.97;32.04;98130.09;5346110;26;1196;-77
2024/04/10 10:53:25;;;;;;;;;;;;;;;20.93;32.11;98135.00;5289260;26;986;-77
2024/04/10 10:55:51;;;;;;;;;;;;;;;20.74;32.41;98134.63;5317254;26;1856;-77
2024/04/10 10:58:17;;;;;;;;;;;;;;;20.55;32.82;98126.94;5289242;26;1035;-76
2024/04/10 11:00:42;;;;;;;;;;;;;;;20.80;32.10;98138.53;5288555;26;1233;-77
2024/04/10 11:03:08;;;;;;;;;;;;;;;20.59;32.31;98124.84;5317384;26;709;-77
2024/04/10 11:05:34;;;;;;;;;;;;;;;20.63;32.30;98134.03;5317247;26;994;-77
2024/04/10 11:08:00;;;;;;;;;;;;;;;20.16;33.33;98138.94;5317494;26;1099;-76
2024/04/10 11:10:25;;;;;;;;;;;;;;;20.53;32.44;98140.72;5369321;26;953;-76
2024/04/10 11:13:00;;;;;;;;;;;;;;;20.67;32.16;98145.25;5328743;26;1220;-77
2024/04/10 11:15:26;;;;;;;;;;;;;;;20.84;32.05;98143.31;5386896;26;1818;-75
2024/04/10 11:18:02;;;;;;;;;;;;;;;20.71;32.05;98140.34;5357861;26;1125;-77
2024/04/10 11:20:28;;;;;;;;;;;;;;;20.50;32.51;98147.22;5329260;26;1407;-76
2024/04/10 11:22:57;;;;;;;;;;;;;;;20.21;33.00;98153.41;5357759;26;1004;-77
2024/04/10 11:25:23;;;;;;;;;;;;;;;20.39;32.69;98152.25;5357573;26;1270;-76
2024/04/10 11:27:49;;;;;;;;;;;;;;;20.52;32.38;98153.22;5383507;26;1126;-76
2024/04/10 11:30:14;;;;;;;;;;;;;;;20.52;32.35;98139.09;5528136;26;836;-76
2024/04/10 11:32:41;;;;;;;;;;;;;;;20.52;32.33;98150.41;5452510;26;930;-77
2024/04/10 11:35:09;;;;;;;;;;;;;;;21.00;31.66;98152.66;5422668;26;1854;-77
2024/04/10 11:37:35;;;;;;;;;;;;;;;20.91;32.38;98148.81;5422281;26;1570;-76
2024/04/10 11:40:01;;;;;;;;;;;;;;;21.05;32.05;98148.50;5422368;26;1023;-76
2024/04/10 11:42:27;;;;;;;;;;;;;;;21.03;32.35;98142.47;5392651;26;1284;-77
2024/04/10 11:44:53;;;;;;;;;;;;;;;20.71;32.75;98135.47;5452367;26;898;-77
2024/04/10 11:47:18;;;;;;;;;;;;;;;20.78;32.61;98145.88;5400502;26;1227;-76
2024/04/10 11:49:44;;;;;;;;;;;;;;;20.26;33.45;98141.59;5427852;26;1498;-77
2024/04/10 11:52:10;;;;;;;;;;;;;;;20.95;32.04;98146.72;5416281;26;1053;-77
2024/04/10 11:54:35;;;;;;;;;;;;;;;20.55;32.40;98146.72;5415722;26;1850;-77
2024/04/10 11:57:04;;;;;;;;;;;;;;;20.76;32.11;98137.78;5345925;26;1050;-76
2024/04/10 11:59:31;;;;;;;;;;;;;;;20.74;32.11;98143.09;5346067;26;1203;-77
2024/04/10 12:01:57;;;;;;;;;;;;;;;20.66;32.24;98138.81;5291020;27;1253;-76
2024/04/10 12:04:22;;;;;;;;;;;;;;;20.50;32.51;98141.56;5221351;27;904;-77
2024/04/10 12:06:48;;;;;;;;;;;;;;;20.35;32.78;98145.88;5248719;27;1042;-76
2024/04/10 12:09:13;;;;;;;;;;;;;;;20.13;33.08;98143.47;5248829;27;987;-77
2024/04/10 12:11:39;;;;;;;;;;;;;;;20.53;32.63;98140.72;5276905;27;965;-76
2024/04/10 12:14:05;;;;;;;;;;;;;;;20.43;32.79;98148.13;5248805;27;909;-77
2024/04/10 12:16:30;;;;;;;;;;;;;;;20.74;31.98;98139.47;5276784;27;1850;-77
2024/04/10 12:18:56;;;;;;;;;;;;;;;20.45;32.40;98150.53;5276885;27;934;-77
2024/04/10 12:21:22;;;;;;;;;;;;;;;20.72;31.96;98137.06;5276822;27;985;-76
2024/04/10 12:23:47;;;;;;;;;;;;;;;20.63;31.99;98136.88;5327783;26;1056;-76
2024/04/10 12:26:14;;;;;;;;;;;;;;;20.27;33.10;98140.38;5345651;26;1051;-77
2024/04/10 12:28:39;;;;;;;;;;;;;;;21.00;32.41;98143.38;5369038;26;913;-76
2024/04/10 12:31:05;;;;;;;;;;;;;;;21.01;32.37;98144.94;5415857;26;1107;-76
2024/04/10 12:33:30;;;;;;;;;;;;;;;21.08;32.32;98144.78;5415750;26;969;-77
2024/04/10 12:38:44;;;;;;;;;;;;;;;20.79;32.50;98145.41;5438567;26;965;-76
2024/04/10 12:41:10;;;;;;;;;;;;;;;20.58;32.97;98157.16;5495650;26;1196;-77
2024/04/10 12:43:40;;;;;;;;;;;;;;;21.03;32.09;98145.31;5531114;26;1046;-77
2024/04/10 12:46:06;;;;;;;;;;;;;;;20.88;32.16;98142.00;5469079;26;1282;-77
2024/04/10 12:48:32;;;;;;;;;;;;;;;20.59;32.62;98138.19;5531154;26;990;-77
2024/04/10 12:50:58;;;;;;;;;;;;;;;20.87;31.93;98142.44;5531328;26;920;-76
2024/04/10 12:53:24;;;;;;;;;;;;;;;20.65;32.34;98140.06;5531084;26;936;-76
2024/04/10 12:55:50;;;;;;;;;;;;;;;20.47;32.93;98131.94;5531540;26;1826;-76
2024/04/10 12:58:15;;;;;;;;;;;;;;;20.39;32.63;98129.66;5531160;26;1011;-77
2024/04/10 13:00:41;;;;;;;;;;;;;;;20.64;32.24;98127.16;5498843;26;1002;-76
2024/04/10 13:03:07;;;;;;;;;;;;;;;20.60;32.40;98139.75;5531557;26;1212;-76